METAR :   LFSB 240930Z 27007KT 9999 FEW016 BKN045 13/09 Q1016 NOSIG

TAF :   LFSB 240500Z 2406/2506 26008KT 9999 FEW020 BKN040 PROB40 TEMPO 2409/2417 -SHRA FEW030TCU BECMG 2422/2424 3000 BR BKN008 TEMPO 2502/2506 0500 FG VV///